»·PEaware :: TPX102 KSFO-KRNO

TPX102 :: KSFO-KRNO

FLIGHT INFORMATION

Flight Status: Arrived
Operator: ATP Experience
More flights by this operator :: More flights under this callsign
Pilot: Dave P. (45)
Aircraft: BOEING 737-800
(B738)
More flights by this aircraft type
Origin: KSFO San Francisco Intl
United States
Destination: KRNO Reno/Tahoe Intl
United States
More flights between these airports :: More routes between these airports
Route: +TRUKN2 ORRCA HOBOA SIER3
File this flight plan on PilotEdge
Remarks: PBN / A1B1C1D1S1S2 DOF / 180704 REG / N738PM OPR / TPX PER / D RMK / TCAS SIMBRIEF
Altitude:
(Current/Filed)
27,000ft
Speed:
(Current/Filed)
459kts
Departed: 04-Jul-18 10:57 AM
Arrived: 04-Jul-18 11:35 AM
Distance/Time
Traveled:
167nm/0:38
Distance/Time
To Go:
Arrived

Flight Plot

Page will automatically refresh every two minutes.


Map Options




Map Legend


Flown Route
Filed Route
Departure Airport
Arrival Airport
Navaid (VOR, NDB)
Fix

Horizontal Profiles

Position Reports

Time Latitude Longitude Heading Altitude Ground
Speed
04-Jul-18 10:38 37.614031 -122.384662 255 21ft 0kts
04-Jul-18 10:39 37.614031 -122.384662 255 21ft 0kts
04-Jul-18 10:40 37.614031 -122.384662 255 21ft 0kts
04-Jul-18 10:41 37.614031 -122.384662 255 21ft 0kts
04-Jul-18 10:42 37.614031 -122.384662 255 21ft 0kts
04-Jul-18 10:43 37.614031 -122.384662 255 21ft 0kts
04-Jul-18 10:44 37.614031 -122.384662 255 21ft 0kts
04-Jul-18 10:45 37.614039 -122.384625 255 21ft 1kts
04-Jul-18 10:46 37.614155 -122.384067 255 21ft 0kts
04-Jul-18 10:47 37.614155 -122.384067 255 21ft 0kts
04-Jul-18 10:48 37.613997 -122.384131 147 21ft 2kts
04-Jul-18 10:49 37.613628 -122.382615 117 21ft 0kts
04-Jul-18 10:50 37.613628 -122.382613 117 21ft 0kts
04-Jul-18 10:51 37.615445 -122.380424 28 21ft 10kts
04-Jul-18 10:52 37.616587 -122.376941 97 21ft 16kts
04-Jul-18 10:53 37.615416 -122.370830 117 21ft 20kts
04-Jul-18 10:54 37.612898 -122.365922 117 21ft 20kts
04-Jul-18 10:55 37.610579 -122.360370 115 21ft 11kts
04-Jul-18 10:56 37.611031 -122.358954 27 21ft 3kts
04-Jul-18 10:57 37.613471 -122.362468 297 21ft 72kts
04-Jul-18 10:58 37.639495 -122.402452 345 1661ft 184kts
04-Jul-18 10:59 37.677952 -122.350792 70 3483ft 262kts
04-Jul-18 11:00 37.704408 -122.259983 72 6720ft 284kts
04-Jul-18 11:01 37.754142 -122.179916 36 9774ft 306kts
04-Jul-18 11:02 37.828649 -122.114147 36 11626ft 361kts
04-Jul-18 11:03 37.914336 -122.036563 36 13902ft 389kts
04-Jul-18 11:04 38.004127 -121.954829 36 16475ft 406kts
04-Jul-18 11:05 38.097605 -121.869408 36 18825ft 422kts
04-Jul-18 11:06 38.194602 -121.780846 36 20928ft 437kts
04-Jul-18 11:07 38.295053 -121.688908 36 22839ft 450kts
04-Jul-18 11:08 38.397914 -121.593942 37 24507ft 463kts
04-Jul-18 11:09 38.466360 -121.457943 65 26086ft 468kts
04-Jul-18 11:10 38.550694 -121.331794 43 27042ft 472kts
04-Jul-18 11:11 38.647088 -121.224452 41 27048ft 451kts
04-Jul-18 11:12 38.744467 -121.126687 38 26558ft 446kts
04-Jul-18 11:13 38.836730 -121.021043 44 26799ft 446kts
04-Jul-18 11:14 38.925689 -120.910546 45 25894ft 441kts
04-Jul-18 11:15 39.012713 -120.801499 45 22882ft 428kts
04-Jul-18 11:16 39.095884 -120.696769 45 20541ft 407kts
04-Jul-18 11:17 39.173580 -120.598573 45 20220ft 388kts
04-Jul-18 11:18 39.250837 -120.500931 46 19092ft 385kts
04-Jul-18 11:19 39.326174 -120.404899 46 17480ft 376kts
04-Jul-18 11:20 39.399700 -120.310918 46 16069ft 365kts
04-Jul-18 11:21 39.474604 -120.222133 43 15977ft 368kts
04-Jul-18 11:22 39.550741 -120.133519 43 15986ft 368kts
04-Jul-18 11:23 39.626906 -120.045010 43 15265ft 363kts
04-Jul-18 11:24 39.699117 -119.964843 27 14132ft 329kts
04-Jul-18 11:25 39.785578 -119.949305 3 13226ft 294kts
04-Jul-18 11:26 39.861063 -119.929293 46 12266ft 276kts
04-Jul-18 11:27 39.874650 -119.843941 104 11364ft 228kts
04-Jul-18 11:28 39.830924 -119.795327 153 9845ft 203kts
04-Jul-18 11:29 39.779794 -119.767461 180 8905ft 198kts
04-Jul-18 11:30 39.723115 -119.768596 181 8642ft 209kts
04-Jul-18 11:31 39.666615 -119.768840 180 7518ft 194kts
04-Jul-18 11:32 39.612509 -119.768977 179 6463ft 189kts
04-Jul-18 11:34 39.562459 -119.769100 181 5483ft 173kts
04-Jul-18 11:35 39.515287 -119.769219 180 4540ft 169kts
04-Jul-18 11:36 39.492817 -119.770265 247 4423ft 0kts
04-Jul-18 11:37 39.493333 -119.771544 0 4423ft 13kts
04-Jul-18 11:38 39.498203 -119.771502 0 4423ft 16kts
04-Jul-18 11:39 39.503186 -119.771489 0 4423ft 20kts
04-Jul-18 11:40 39.507587 -119.771484 0 4423ft 10kts
04-Jul-18 11:41 39.507477 -119.772941 182 4423ft 1kts
04-Jul-18 11:42 39.507476 -119.772941 182 4423ft 0kts
04-Jul-18 11:43 39.507476 -119.772941 182 4423ft 0kts

Navigation Log

Ident Type
Flight plan parsing failed, navigation log unavailable